Tom Price, Western Australia

8:25 PM AWST on September 27, 2016 (GMT +0800)
Tom Price Weather Centre | | Change Station

Elev 2378 ft 22.69 °S, 117.79 °E | Updated 9 seconds ago

Clear
Clear
75.3 °F
Feels Like 75 °F
N
3.5
Wind Variable Wind from SSE
Gusts 3.5 mph

Today
High -- | Low -- °F
--% Chance of Precip.
Yesterday
High -- | Low -- °F
Precip. -- in
Pressure 29.89 in
Visibility 6.2 miles
Clouds
Heat Index 75 °F
Dew Point 19 °F
Humidity 12%
Rainfall 0.00 in
Snow Depth Not available.
5:53 AM 6:06 PM
Waning Crescent, 12% visible
METAR YPBO 271200Z AUTO 21012KT 9999 // NCD 27/M05 Q1012
Pressure 29.89 in
Visibility 6.2 miles
Clouds
Heat Index 75 °F
Dew Point 19 °F
Humidity 12%
Rainfall 0.00 in
Snow Depth Not available.
5:53 AM 6:06 PM
Waning Crescent, 12% visible
METAR YPBO 271200Z AUTO 21012KT 9999 // NCD 27/M05 Q1012

10-Day Weather Forecast

No radar image for this location.
×

Almanac

Astronomy

Sep. 27, 2016 Rise Set
Actual Time
Civil Twilight
Nautical Twilight
Astronomical Twilight
Moon
Length of Visible Light
Length of Day
Tomorrow will be .
, % of the Moon is Illuminated

Today's Extremes

Country Highs Country Lows

Community

WunderPhotos

Upload Photos

1,942,069 photos uploaded!

WunderBlog® & News

Nearby

Air Quality

  Air Quality AQ Index Pollutant
Not available.

Snow Depth

Station Depth Elevation

Earthquake Activity

City Distance Mag. Time & Date
Minimum magnitude displayed is 2.5.

Coastal Water Temperatures

Place Temperature

Stations

Nearby Weather Stations

Station Location Temp. Windchill Dew Point Humidity Wind Precip. Elev Updated Type